sensor_id;sensor_type;location;lat;lon;timestamp;P1;durP1;ratioP1;P2;durP2;ratioP2
25191;SDS011;13143;50.924;5.320;2022-11-15T00:01:39;45.78;;;25.48;;
25191;SDS011;13143;50.924;5.320;2022-11-15T00:04:05;42.60;;;24.15;;
25191;SDS011;13143;50.924;5.320;2022-11-15T00:06:32;39.97;;;23.75;;
25191;SDS011;13143;50.924;5.320;2022-11-15T00:08:58;40.55;;;24.90;;
25191;SDS011;13143;50.924;5.320;2022-11-15T00:11:24;39.28;;;25.05;;
25191;SDS011;13143;50.924;5.320;2022-11-15T00:13:50;42.50;;;25.00;;
25191;SDS011;13143;50.924;5.320;2022-11-15T00:16:15;42.92;;;24.63;;
25191;SDS011;13143;50.924;5.320;2022-11-15T00:18:41;41.85;;;23.92;;
25191;SDS011;13143;50.924;5.320;2022-11-15T00:21:08;43.17;;;24.58;;
25191;SDS011;13143;50.924;5.320;2022-11-15T00:23:36;45.00;;;23.98;;
25191;SDS011;13143;50.924;5.320;2022-11-15T00:26:02;42.83;;;23.48;;
25191;SDS011;13143;50.924;5.320;2022-11-15T00:28:28;40.63;;;22.50;;
25191;SDS011;13143;50.924;5.320;2022-11-15T00:30:59;39.10;;;24.42;;
25191;SDS011;13143;50.924;5.320;2022-11-15T00:33:28;38.08;;;23.08;;
25191;SDS011;13143;50.924;5.320;2022-11-15T00:35:59;40.00;;;21.77;;
25191;SDS011;13143;50.924;5.320;2022-11-15T00:38:34;41.55;;;23.05;;
25191;SDS011;13143;50.924;5.320;2022-11-15T00:41:01;38.97;;;22.20;;
25191;SDS011;13143;50.924;5.320;2022-11-15T00:43:27;35.30;;;21.88;;
25191;SDS011;13143;50.924;5.320;2022-11-15T00:45:54;36.03;;;22.17;;
25191;SDS011;13143;50.924;5.320;2022-11-15T00:48:19;34.85;;;21.88;;
25191;SDS011;13143;50.924;5.320;2022-11-15T00:50:45;37.03;;;21.17;;
25191;SDS011;13143;50.924;5.320;2022-11-15T00:53:10;30.52;;;20.65;;
25191;SDS011;13143;50.924;5.320;2022-11-15T00:55:36;31.88;;;21.20;;
25191;SDS011;13143;50.924;5.320;2022-11-15T00:58:02;32.95;;;21.23;;
25191;SDS011;13143;50.924;5.320;2022-11-15T01:00:28;31.77;;;20.65;;
25191;SDS011;13143;50.924;5.320;2022-11-15T01:02:53;32.67;;;20.95;;
25191;SDS011;13143;50.924;5.320;2022-11-15T01:05:19;42.35;;;21.20;;
25191;SDS011;13143;50.924;5.320;2022-11-15T01:07:45;35.10;;;20.63;;
25191;SDS011;13143;50.924;5.320;2022-11-15T01:10:11;34.47;;;20.58;;
25191;SDS011;13143;50.924;5.320;2022-11-15T01:12:37;39.10;;;20.98;;
25191;SDS011;13143;50.924;5.320;2022-11-15T01:15:02;33.47;;;20.65;;
25191;SDS011;13143;50.924;5.320;2022-11-15T01:17:29;32.88;;;20.90;;
25191;SDS011;13143;50.924;5.320;2022-11-15T01:19:55;36.20;;;20.83;;
25191;SDS011;13143;50.924;5.320;2022-11-15T01:22:21;38.97;;;20.42;;
25191;SDS011;13143;50.924;5.320;2022-11-15T01:24:49;33.47;;;20.42;;
25191;SDS011;13143;50.924;5.320;2022-11-15T01:27:15;33.50;;;20.92;;
25191;SDS011;13143;50.924;5.320;2022-11-15T01:29:40;37.80;;;20.73;;
25191;SDS011;13143;50.924;5.320;2022-11-15T01:32:06;32.75;;;19.52;;
25191;SDS011;13143;50.924;5.320;2022-11-15T01:34:32;32.97;;;20.27;;
25191;SDS011;13143;50.924;5.320;2022-11-15T01:36:57;26.58;;;19.50;;
25191;SDS011;13143;50.924;5.320;2022-11-15T01:39:23;38.60;;;20.60;;
25191;SDS011;13143;50.924;5.320;2022-11-15T01:41:49;31.42;;;19.15;;
25191;SDS011;13143;50.924;5.320;2022-11-15T01:46:56;34.80;;;18.80;;
25191;SDS011;13143;50.924;5.320;2022-11-15T01:49:24;33.55;;;20.10;;
25191;SDS011;13143;50.924;5.320;2022-11-15T01:51:53;34.60;;;19.98;;
25191;SDS011;13143;50.924;5.320;2022-11-15T01:54:20;29.40;;;19.75;;
25191;SDS011;13143;50.924;5.320;2022-11-15T01:56:50;32.03;;;20.15;;
25191;SDS011;13143;50.924;5.320;2022-11-15T01:59:28;34.30;;;19.63;;
25191;SDS011;13143;50.924;5.320;2022-11-15T02:01:55;34.05;;;19.35;;
25191;SDS011;13143;50.924;5.320;2022-11-15T02:04:24;37.85;;;20.58;;
25191;SDS011;13143;50.924;5.320;2022-11-15T02:06:52;27.40;;;19.42;;
25191;SDS011;13143;50.924;5.320;2022-11-15T02:09:19;29.48;;;19.67;;
25191;SDS011;13143;50.924;5.320;2022-11-15T02:11:44;33.45;;;20.33;;
25191;SDS011;13143;50.924;5.320;2022-11-15T02:14:12;29.50;;;19.30;;
25191;SDS011;13143;50.924;5.320;2022-11-15T02:36:02;28.08;;;17.67;;
25191;SDS011;13143;50.924;5.320;2022-11-15T02:41:07;29.05;;;17.60;;
25191;SDS011;13143;50.924;5.320;2022-11-15T02:43:53;29.70;;;18.33;;
25191;SDS011;13143;50.924;5.320;2022-11-15T02:49:37;26.33;;;17.13;;
25191;SDS011;13143;50.924;5.320;2022-11-15T02:52:04;33.25;;;17.42;;
25191;SDS011;13143;50.924;5.320;2022-11-15T02:54:31;27.63;;;17.23;;
25191;SDS011;13143;50.924;5.320;2022-11-15T02:56:59;28.27;;;17.85;;
25191;SDS011;13143;50.924;5.320;2022-11-15T03:02:08;28.13;;;18.23;;
25191;SDS011;13143;50.924;5.320;2022-11-15T03:04:53;27.33;;;17.35;;
25191;SDS011;13143;50.924;5.320;2022-11-15T03:07:51;27.30;;;17.23;;
25191;SDS011;13143;50.924;5.320;2022-11-15T03:11:02;29.23;;;17.33;;
25191;SDS011;13143;50.924;5.320;2022-11-15T03:16:15;25.20;;;16.45;;
25191;SDS011;13143;50.924;5.320;2022-11-15T03:18:47;28.00;;;17.23;;
25191;SDS011;13143;50.924;5.320;2022-11-15T03:24:05;28.67;;;17.42;;
25191;SDS011;13143;50.924;5.320;2022-11-15T03:26:33;26.23;;;16.45;;
25191;SDS011;13143;50.924;5.320;2022-11-15T03:29:14;29.15;;;17.55;;
25191;SDS011;13143;50.924;5.320;2022-11-15T03:31:46;28.75;;;17.10;;
25191;SDS011;13143;50.924;5.320;2022-11-15T03:35:01;24.25;;;17.33;;
25191;SDS011;13143;50.924;5.320;2022-11-15T03:37:04;25.90;;;16.75;;
25191;SDS011;13143;50.924;5.320;2022-11-15T03:39:31;25.85;;;16.35;;
25191;SDS011;13143;50.924;5.320;2022-11-15T03:47:21;23.60;;;15.32;;
25191;SDS011;13143;50.924;5.320;2022-11-15T03:50:01;21.00;;;15.55;;
25191;SDS011;13143;50.924;5.320;2022-11-15T03:52:33;24.90;;;16.02;;
25191;SDS011;13143;50.924;5.320;2022-11-15T03:55:00;24.13;;;15.60;;
25191;SDS011;13143;50.924;5.320;2022-11-15T03:57:27;26.65;;;15.15;;
25191;SDS011;13143;50.924;5.320;2022-11-15T03:59:53;23.52;;;15.68;;
25191;SDS011;13143;50.924;5.320;2022-11-15T04:02:19;23.80;;;15.98;;
25191;SDS011;13143;50.924;5.320;2022-11-15T04:04:45;23.80;;;16.17;;
25191;SDS011;13143;50.924;5.320;2022-11-15T04:07:10;28.13;;;14.98;;
25191;SDS011;13143;50.924;5.320;2022-11-15T04:09:36;26.50;;;16.10;;
25191;SDS011;13143;50.924;5.320;2022-11-15T04:12:20;23.08;;;14.32;;
25191;SDS011;13143;50.924;5.320;2022-11-15T04:14:55;22.80;;;15.40;;
25191;SDS011;13143;50.924;5.320;2022-11-15T04:17:34;22.13;;;14.52;;
25191;SDS011;13143;50.924;5.320;2022-11-15T04:20:09;27.48;;;14.50;;
25191;SDS011;13143;50.924;5.320;2022-11-15T04:22:56;22.25;;;14.60;;
25191;SDS011;13143;50.924;5.320;2022-11-15T04:25:42;22.25;;;13.32;;
25191;SDS011;13143;50.924;5.320;2022-11-15T04:28:08;21.42;;;14.52;;
25191;SDS011;13143;50.924;5.320;2022-11-15T04:30:34;21.92;;;15.25;;
25191;SDS011;13143;50.924;5.320;2022-11-15T04:33:00;26.33;;;14.10;;
25191;SDS011;13143;50.924;5.320;2022-11-15T04:35:26;20.15;;;14.77;;
25191;SDS011;13143;50.924;5.320;2022-11-15T04:37:52;23.55;;;14.55;;
25191;SDS011;13143;50.924;5.320;2022-11-15T04:40:17;20.17;;;13.82;;
25191;SDS011;13143;50.924;5.320;2022-11-15T04:42:43;26.55;;;15.13;;
25191;SDS011;13143;50.924;5.320;2022-11-15T04:45:09;20.23;;;15.10;;
25191;SDS011;13143;50.924;5.320;2022-11-15T04:47:35;21.05;;;14.98;;
25191;SDS011;13143;50.924;5.320;2022-11-15T04:50:00;22.80;;;15.65;;
25191;SDS011;13143;50.924;5.320;2022-11-15T04:52:26;23.35;;;15.85;;
25191;SDS011;13143;50.924;5.320;2022-11-15T04:54:51;22.92;;;14.90;;
25191;SDS011;13143;50.924;5.320;2022-11-15T04:57:17;22.90;;;15.27;;
25191;SDS011;13143;50.924;5.320;2022-11-15T04:59:43;13.75;;;10.20;;
25191;SDS011;13143;50.924;5.320;2022-11-15T05:02:08;14.90;;;7.25;;
25191;SDS011;13143;50.924;5.320;2022-11-15T05:04:34;9.05;;;5.38;;
25191;SDS011;13143;50.924;5.320;2022-11-15T05:07:00;5.70;;;4.00;;
25191;SDS011;13143;50.924;5.320;2022-11-15T05:09:26;7.68;;;4.22;;
25191;SDS011;13143;50.924;5.320;2022-11-15T05:11:51;10.77;;;3.75;;
25191;SDS011;13143;50.924;5.320;2022-11-15T05:14:17;6.82;;;3.50;;
25191;SDS011;13143;50.924;5.320;2022-11-15T05:16:43;8.57;;;3.67;;
25191;SDS011;13143;50.924;5.320;2022-11-15T05:19:08;7.88;;;3.17;;
25191;SDS011;13143;50.924;5.320;2022-11-15T05:21:34;10.77;;;4.22;;
25191;SDS011;13143;50.924;5.320;2022-11-15T05:24:00;9.50;;;3.90;;
25191;SDS011;13143;50.924;5.320;2022-11-15T05:26:26;7.20;;;4.22;;
25191;SDS011;13143;50.924;5.320;2022-11-15T05:28:56;7.45;;;4.30;;
25191;SDS011;13143;50.924;5.320;2022-11-15T05:31:23;8.50;;;4.82;;
25191;SDS011;13143;50.924;5.320;2022-11-15T05:33:50;11.48;;;5.60;;
25191;SDS011;13143;50.924;5.320;2022-11-15T05:39:11;9.18;;;5.13;;
25191;SDS011;13143;50.924;5.320;2022-11-15T05:41:38;13.00;;;5.88;;
25191;SDS011;13143;50.924;5.320;2022-11-15T05:44:05;7.75;;;5.28;;
25191;SDS011;13143;50.924;5.320;2022-11-15T05:46:33;8.45;;;5.97;;
25191;SDS011;13143;50.924;5.320;2022-11-15T05:49:00;8.05;;;5.85;;
25191;SDS011;13143;50.924;5.320;2022-11-15T05:51:26;14.27;;;6.40;;
25191;SDS011;13143;50.924;5.320;2022-11-15T05:53:54;12.23;;;6.22;;
25191;SDS011;13143;50.924;5.320;2022-11-15T05:56:21;15.40;;;6.03;;
25191;SDS011;13143;50.924;5.320;2022-11-15T05:58:47;11.27;;;6.15;;
25191;SDS011;13143;50.924;5.320;2022-11-15T06:01:13;12.55;;;5.80;;
25191;SDS011;13143;50.924;5.320;2022-11-15T06:03:39;10.63;;;6.53;;
25191;SDS011;13143;50.924;5.320;2022-11-15T06:06:04;15.38;;;5.82;;
25191;SDS011;13143;50.924;5.320;2022-11-15T06:08:30;11.73;;;5.93;;
25191;SDS011;13143;50.924;5.320;2022-11-15T06:10:56;13.13;;;5.65;;
25191;SDS011;13143;50.924;5.320;2022-11-15T06:13:21;9.98;;;5.47;;
25191;SDS011;13143;50.924;5.320;2022-11-15T06:15:47;17.08;;;6.53;;
25191;SDS011;13143;50.924;5.320;2022-11-15T06:18:12;12.02;;;6.40;;
25191;SDS011;13143;50.924;5.320;2022-11-15T06:20:38;13.45;;;6.22;;
25191;SDS011;13143;50.924;5.320;2022-11-15T06:23:04;11.63;;;5.68;;
25191;SDS011;13143;50.924;5.320;2022-11-15T06:25:30;8.40;;;5.53;;
25191;SDS011;13143;50.924;5.320;2022-11-15T06:27:59;13.40;;;6.32;;
25191;SDS011;13143;50.924;5.320;2022-11-15T06:30:26;10.68;;;5.57;;
25191;SDS011;13143;50.924;5.320;2022-11-15T06:32:53;14.45;;;6.05;;
25191;SDS011;13143;50.924;5.320;2022-11-15T06:35:25;13.90;;;6.03;;
25191;SDS011;13143;50.924;5.320;2022-11-15T06:37:51;12.77;;;5.95;;
25191;SDS011;13143;50.924;5.320;2022-11-15T06:40:16;14.32;;;6.32;;
25191;SDS011;13143;50.924;5.320;2022-11-15T06:42:42;12.73;;;5.20;;
25191;SDS011;13143;50.924;5.320;2022-11-15T06:45:08;8.98;;;4.90;;
25191;SDS011;13143;50.924;5.320;2022-11-15T06:47:33;10.77;;;4.97;;
25191;SDS011;13143;50.924;5.320;2022-11-15T06:49:59;9.30;;;4.65;;
25191;SDS011;13143;50.924;5.320;2022-11-15T06:52:25;7.97;;;4.75;;
25191;SDS011;13143;50.924;5.320;2022-11-15T06:54:50;15.50;;;5.45;;
25191;SDS011;13143;50.924;5.320;2022-11-15T06:57:16;8.88;;;4.38;;
25191;SDS011;13143;50.924;5.320;2022-11-15T06:59:41;8.85;;;4.40;;
25191;SDS011;13143;50.924;5.320;2022-11-15T07:02:13;16.10;;;4.82;;
25191;SDS011;13143;50.924;5.320;2022-11-15T07:04:39;9.88;;;3.90;;
25191;SDS011;13143;50.924;5.320;2022-11-15T07:07:05;10.15;;;4.50;;
25191;SDS011;13143;50.924;5.320;2022-11-15T07:09:31;8.82;;;4.50;;
25191;SDS011;13143;50.924;5.320;2022-11-15T07:11:56;9.63;;;4.57;;
25191;SDS011;13143;50.924;5.320;2022-11-15T07:14:22;9.20;;;4.75;;
25191;SDS011;13143;50.924;5.320;2022-11-15T07:16:47;8.02;;;4.95;;
25191;SDS011;13143;50.924;5.320;2022-11-15T07:19:13;7.35;;;4.88;;
25191;SDS011;13143;50.924;5.320;2022-11-15T07:21:38;8.25;;;5.35;;
25191;SDS011;13143;50.924;5.320;2022-11-15T07:24:04;11.20;;;5.60;;
25191;SDS011;13143;50.924;5.320;2022-11-15T07:26:30;13.05;;;5.47;;
25191;SDS011;13143;50.924;5.320;2022-11-15T07:28:56;9.75;;;5.05;;
25191;SDS011;13143;50.924;5.320;2022-11-15T07:31:21;10.20;;;5.55;;
25191;SDS011;13143;50.924;5.320;2022-11-15T07:33:47;12.75;;;5.65;;
25191;SDS011;13143;50.924;5.320;2022-11-15T07:36:13;10.23;;;5.80;;
25191;SDS011;13143;50.924;5.320;2022-11-15T07:38:38;16.42;;;6.13;;
25191;SDS011;13143;50.924;5.320;2022-11-15T07:41:04;11.48;;;5.95;;
25191;SDS011;13143;50.924;5.320;2022-11-15T07:43:31;10.85;;;6.20;;
25191;SDS011;13143;50.924;5.320;2022-11-15T07:46:04;11.30;;;5.72;;
25191;SDS011;13143;50.924;5.320;2022-11-15T07:48:30;10.32;;;5.88;;
25191;SDS011;13143;50.924;5.320;2022-11-15T07:50:56;12.05;;;6.13;;
25191;SDS011;13143;50.924;5.320;2022-11-15T07:53:22;11.07;;;5.55;;
25191;SDS011;13143;50.924;5.320;2022-11-15T07:55:47;8.23;;;5.68;;
25191;SDS011;13143;50.924;5.320;2022-11-15T07:58:13;10.23;;;6.13;;
25191;SDS011;13143;50.924;5.320;2022-11-15T08:00:39;11.25;;;6.00;;
25191;SDS011;13143;50.924;5.320;2022-11-15T08:03:08;10.13;;;6.53;;
25191;SDS011;13143;50.924;5.320;2022-11-15T08:05:35;9.82;;;5.82;;
25191;SDS011;13143;50.924;5.320;2022-11-15T08:08:02;8.93;;;6.63;;
25191;SDS011;13143;50.924;5.320;2022-11-15T08:10:28;10.90;;;6.32;;
25191;SDS011;13143;50.924;5.320;2022-11-15T08:13:01;11.60;;;5.60;;
25191;SDS011;13143;50.924;5.320;2022-11-15T08:15:28;10.13;;;4.70;;
25191;SDS011;13143;50.924;5.320;2022-11-15T08:17:56;6.85;;;3.58;;
25191;SDS011;13143;50.924;5.320;2022-11-15T08:20:23;6.85;;;3.33;;
25191;SDS011;13143;50.924;5.320;2022-11-15T08:22:49;6.65;;;3.35;;
25191;SDS011;13143;50.924;5.320;2022-11-15T08:25:15;7.88;;;3.13;;
25191;SDS011;13143;50.924;5.320;2022-11-15T08:27:41;7.35;;;2.80;;
25191;SDS011;13143;50.924;5.320;2022-11-15T08:30:07;5.93;;;3.08;;
25191;SDS011;13143;50.924;5.320;2022-11-15T08:32:33;7.43;;;3.20;;
25191;SDS011;13143;50.924;5.320;2022-11-15T08:34:58;8.43;;;2.40;;
25191;SDS011;13143;50.924;5.320;2022-11-15T08:37:24;5.75;;;2.65;;
25191;SDS011;13143;50.924;5.320;2022-11-15T08:39:50;6.05;;;2.17;;
25191;SDS011;13143;50.924;5.320;2022-11-15T08:42:18;12.90;;;2.58;;
25191;SDS011;13143;50.924;5.320;2022-11-15T08:44:44;6.78;;;2.60;;
25191;SDS011;13143;50.924;5.320;2022-11-15T08:47:10;5.00;;;1.88;;
25191;SDS011;13143;50.924;5.320;2022-11-15T08:49:40;7.07;;;2.70;;
25191;SDS011;13143;50.924;5.320;2022-11-15T08:52:06;9.00;;;1.80;;
25191;SDS011;13143;50.924;5.320;2022-11-15T08:54:31;9.95;;;1.63;;
25191;SDS011;13143;50.924;5.320;2022-11-15T08:56:57;8.15;;;2.33;;
25191;SDS011;13143;50.924;5.320;2022-11-15T08:59:23;7.32;;;1.95;;
25191;SDS011;13143;50.924;5.320;2022-11-15T09:01:48;6.50;;;2.47;;
25191;SDS011;13143;50.924;5.320;2022-11-15T09:04:14;8.05;;;2.10;;
25191;SDS011;13143;50.924;5.320;2022-11-15T09:06:40;6.13;;;1.98;;
25191;SDS011;13143;50.924;5.320;2022-11-15T09:09:05;13.52;;;2.05;;
25191;SDS011;13143;50.924;5.320;2022-11-15T09:11:31;8.75;;;1.88;;
25191;SDS011;13143;50.924;5.320;2022-11-15T09:13:57;6.15;;;1.88;;
25191;SDS011;13143;50.924;5.320;2022-11-15T09:16:22;7.63;;;2.33;;
25191;SDS011;13143;50.924;5.320;2022-11-15T09:18:52;11.13;;;2.22;;
25191;SDS011;13143;50.924;5.320;2022-11-15T09:21:19;6.35;;;1.90;;
25191;SDS011;13143;50.924;5.320;2022-11-15T09:23:44;11.23;;;2.13;;
25191;SDS011;13143;50.924;5.320;2022-11-15T09:26:10;4.32;;;1.52;;
25191;SDS011;13143;50.924;5.320;2022-11-15T09:28:36;9.85;;;2.25;;
25191;SDS011;13143;50.924;5.320;2022-11-15T09:31:03;9.13;;;2.42;;
25191;SDS011;13143;50.924;5.320;2022-11-15T09:33:30;8.73;;;2.58;;
25191;SDS011;13143;50.924;5.320;2022-11-15T09:36:00;9.90;;;2.00;;
25191;SDS011;13143;50.924;5.320;2022-11-15T09:38:27;9.55;;;2.40;;
25191;SDS011;13143;50.924;5.320;2022-11-15T09:40:57;5.82;;;1.80;;
25191;SDS011;13143;50.924;5.320;2022-11-15T09:49:07;6.25;;;2.15;;
25191;SDS011;13143;50.924;5.320;2022-11-15T09:51:36;9.85;;;2.35;;
25191;SDS011;13143;50.924;5.320;2022-11-15T09:57:17;11.40;;;2.45;;
25191;SDS011;13143;50.924;5.320;2022-11-15T10:05:09;8.52;;;1.80;;
25191;SDS011;13143;50.924;5.320;2022-11-15T10:07:40;7.18;;;1.55;;
25191;SDS011;13143;50.924;5.320;2022-11-15T10:13:07;10.65;;;1.58;;
25191;SDS011;13143;50.924;5.320;2022-11-15T10:15:42;5.22;;;1.65;;
25191;SDS011;13143;50.924;5.320;2022-11-15T10:20:53;7.10;;;1.52;;
25191;SDS011;13143;50.924;5.320;2022-11-15T10:23:23;7.15;;;1.67;;
25191;SDS011;13143;50.924;5.320;2022-11-15T10:25:55;7.80;;;1.65;;
25191;SDS011;13143;50.924;5.320;2022-11-15T10:28:27;11.85;;;2.28;;
25191;SDS011;13143;50.924;5.320;2022-11-15T10:30:55;7.55;;;1.77;;
25191;SDS011;13143;50.924;5.320;2022-11-15T10:41:15;8.73;;;1.77;;
25191;SDS011;13143;50.924;5.320;2022-11-15T10:43:41;8.80;;;2.10;;
25191;SDS011;13143;50.924;5.320;2022-11-15T10:46:20;10.90;;;2.13;;
25191;SDS011;13143;50.924;5.320;2022-11-15T10:48:47;14.18;;;2.40;;
25191;SDS011;13143;50.924;5.320;2022-11-15T10:51:24;4.38;;;1.23;;
25191;SDS011;13143;50.924;5.320;2022-11-15T10:53:53;8.05;;;1.80;;
25191;SDS011;13143;50.924;5.320;2022-11-15T10:56:21;10.25;;;1.77;;
25191;SDS011;13143;50.924;5.320;2022-11-15T10:58:55;8.75;;;1.92;;
25191;SDS011;13143;50.924;5.320;2022-11-15T11:01:23;7.53;;;1.77;;
25191;SDS011;13143;50.924;5.320;2022-11-15T11:04:05;6.18;;;1.45;;
25191;SDS011;13143;50.924;5.320;2022-11-15T11:09:34;14.02;;;2.08;;
25191;SDS011;13143;50.924;5.320;2022-11-15T11:12:03;7.85;;;1.45;;
25191;SDS011;13143;50.924;5.320;2022-11-15T11:43:39;8.70;;;1.52;;
25191;SDS011;13143;50.924;5.320;2022-11-15T11:57:17;12.27;;;2.00;;
25191;SDS011;13143;50.924;5.320;2022-11-15T12:05:49;8.13;;;1.25;;
25191;SDS011;13143;50.924;5.320;2022-11-15T12:08:22;6.82;;;1.35;;
25191;SDS011;13143;50.924;5.320;2022-11-15T12:11:14;7.25;;;1.20;;
25191;SDS011;13143;50.924;5.320;2022-11-15T12:13:45;6.68;;;1.15;;
25191;SDS011;13143;50.924;5.320;2022-11-15T12:16:19;4.15;;;1.30;;
25191;SDS011;13143;50.924;5.320;2022-11-15T12:18:52;8.32;;;2.30;;
25191;SDS011;13143;50.924;5.320;2022-11-15T12:21:24;5.78;;;1.30;;
25191;SDS011;13143;50.924;5.320;2022-11-15T12:23:55;6.03;;;1.55;;
25191;SDS011;13143;50.924;5.320;2022-11-15T12:26:31;8.32;;;1.70;;
25191;SDS011;13143;50.924;5.320;2022-11-15T12:29:03;8.00;;;1.88;;
25191;SDS011;13143;50.924;5.320;2022-11-15T12:31:38;8.00;;;1.63;;
25191;SDS011;13143;50.924;5.320;2022-11-15T12:36:53;9.95;;;1.73;;
25191;SDS011;13143;50.924;5.320;2022-11-15T12:39:19;11.23;;;1.52;;
25191;SDS011;13143;50.924;5.320;2022-11-15T12:47:30;7.57;;;1.20;;
25191;SDS011;13143;50.924;5.320;2022-11-15T12:49:55;6.22;;;1.70;;
25191;SDS011;13143;50.924;5.320;2022-11-15T12:52:21;7.22;;;1.73;;
25191;SDS011;13143;50.924;5.320;2022-11-15T12:54:54;6.13;;;1.85;;
25191;SDS011;13143;50.924;5.320;2022-11-15T12:57:23;7.38;;;1.83;;
25191;SDS011;13143;50.924;5.320;2022-11-15T13:02:39;6.43;;;1.75;;
25191;SDS011;13143;50.924;5.320;2022-11-15T13:17:38;6.88;;;1.25;;
25191;SDS011;13143;50.924;5.320;2022-11-15T13:28:11;7.22;;;1.58;;
25191;SDS011;13143;50.924;5.320;2022-11-15T13:30:50;6.20;;;1.40;;
25191;SDS011;13143;50.924;5.320;2022-11-15T13:35:50;5.95;;;1.50;;
25191;SDS011;13143;50.924;5.320;2022-11-15T13:38:25;11.13;;;2.10;;
25191;SDS011;13143;50.924;5.320;2022-11-15T13:41:10;6.20;;;1.70;;
25191;SDS011;13143;50.924;5.320;2022-11-15T13:43:45;6.68;;;1.75;;
25191;SDS011;13143;50.924;5.320;2022-11-15T13:48:46;5.65;;;1.48;;
25191;SDS011;13143;50.924;5.320;2022-11-15T13:51:24;3.35;;;1.50;;
25191;SDS011;13143;50.924;5.320;2022-11-15T14:00:05;3.78;;;1.33;;
25191;SDS011;13143;50.924;5.320;2022-11-15T14:02:47;8.38;;;1.73;;
25191;SDS011;13143;50.924;5.320;2022-11-15T14:07:52;4.70;;;1.70;;
25191;SDS011;13143;50.924;5.320;2022-11-15T14:10:30;4.70;;;1.50;;
25191;SDS011;13143;50.924;5.320;2022-11-15T14:12:57;5.10;;;1.63;;
25191;SDS011;13143;50.924;5.320;2022-11-15T14:15:34;4.82;;;1.58;;
25191;SDS011;13143;50.924;5.320;2022-11-15T14:18:01;4.20;;;1.58;;
25191;SDS011;13143;50.924;5.320;2022-11-15T14:20:32;3.25;;;1.65;;
25191;SDS011;13143;50.924;5.320;2022-11-15T14:23:00;3.42;;;1.77;;
25191;SDS011;13143;50.924;5.320;2022-11-15T14:25:58;6.22;;;1.77;;
25191;SDS011;13143;50.924;5.320;2022-11-15T14:30:53;8.43;;;2.00;;
25191;SDS011;13143;50.924;5.320;2022-11-15T14:35:58;3.40;;;1.60;;
25191;SDS011;13143;50.924;5.320;2022-11-15T14:38:28;3.75;;;1.48;;
25191;SDS011;13143;50.924;5.320;2022-11-15T14:40:54;6.50;;;1.90;;
25191;SDS011;13143;50.924;5.320;2022-11-15T14:43:21;5.80;;;1.60;;
25191;SDS011;13143;50.924;5.320;2022-11-15T14:45:47;4.47;;;1.80;;
25191;SDS011;13143;50.924;5.320;2022-11-15T14:48:12;6.93;;;1.80;;
25191;SDS011;13143;50.924;5.320;2022-11-15T14:50:38;3.28;;;1.73;;
25191;SDS011;13143;50.924;5.320;2022-11-15T14:53:04;7.75;;;1.73;;
25191;SDS011;13143;50.924;5.320;2022-11-15T14:55:31;5.07;;;1.88;;
25191;SDS011;13143;50.924;5.320;2022-11-15T14:58:00;3.22;;;1.67;;
25191;SDS011;13143;50.924;5.320;2022-11-15T15:00:28;3.83;;;2.03;;
25191;SDS011;13143;50.924;5.320;2022-11-15T15:02:57;2.83;;;1.75;;
25191;SDS011;13143;50.924;5.320;2022-11-15T15:05:24;5.93;;;2.03;;
25191;SDS011;13143;50.924;5.320;2022-11-15T15:07:53;5.22;;;1.90;;
25191;SDS011;13143;50.924;5.320;2022-11-15T15:10:19;6.03;;;2.00;;
25191;SDS011;13143;50.924;5.320;2022-11-15T15:12:45;6.10;;;1.88;;
25191;SDS011;13143;50.924;5.320;2022-11-15T15:15:12;7.05;;;2.30;;
25191;SDS011;13143;50.924;5.320;2022-11-15T15:17:39;5.43;;;2.45;;
25191;SDS011;13143;50.924;5.320;2022-11-15T15:20:05;7.45;;;2.17;;
25191;SDS011;13143;50.924;5.320;2022-11-15T15:22:31;6.68;;;2.30;;
25191;SDS011;13143;50.924;5.320;2022-11-15T15:24:56;3.60;;;2.22;;
25191;SDS011;13143;50.924;5.320;2022-11-15T15:27:22;6.30;;;2.03;;
25191;SDS011;13143;50.924;5.320;2022-11-15T15:29:48;5.53;;;2.47;;
25191;SDS011;13143;50.924;5.320;2022-11-15T15:32:14;4.07;;;2.00;;
25191;SDS011;13143;50.924;5.320;2022-11-15T15:34:39;4.55;;;2.20;;
25191;SDS011;13143;50.924;5.320;2022-11-15T15:39:47;4.60;;;2.03;;
25191;SDS011;13143;50.924;5.320;2022-11-15T15:42:14;5.68;;;2.10;;
25191;SDS011;13143;50.924;5.320;2022-11-15T15:44:40;6.00;;;2.20;;
25191;SDS011;13143;50.924;5.320;2022-11-15T15:47:12;4.85;;;2.10;;
25191;SDS011;13143;50.924;5.320;2022-11-15T15:49:42;7.05;;;2.22;;
25191;SDS011;13143;50.924;5.320;2022-11-15T15:52:08;4.53;;;2.38;;
25191;SDS011;13143;50.924;5.320;2022-11-15T15:54:33;9.85;;;2.60;;
25191;SDS011;13143;50.924;5.320;2022-11-15T15:56:59;5.00;;;2.80;;
25191;SDS011;13143;50.924;5.320;2022-11-15T15:59:25;4.70;;;3.03;;
25191;SDS011;13143;50.924;5.320;2022-11-15T16:01:51;4.63;;;2.72;;
25191;SDS011;13143;50.924;5.320;2022-11-15T16:04:16;6.15;;;3.13;;
25191;SDS011;13143;50.924;5.320;2022-11-15T16:06:42;8.07;;;2.92;;
25191;SDS011;13143;50.924;5.320;2022-11-15T16:09:18;5.43;;;2.85;;
25191;SDS011;13143;50.924;5.320;2022-11-15T16:12:07;4.32;;;2.83;;
25191;SDS011;13143;50.924;5.320;2022-11-15T16:14:33;5.82;;;2.90;;
25191;SDS011;13143;50.924;5.320;2022-11-15T16:16:58;5.93;;;2.90;;
25191;SDS011;13143;50.924;5.320;2022-11-15T16:19:24;6.32;;;3.00;;
25191;SDS011;13143;50.924;5.320;2022-11-15T16:21:49;6.50;;;2.92;;
25191;SDS011;13143;50.924;5.320;2022-11-15T16:24:17;6.80;;;3.67;;
25191;SDS011;13143;50.924;5.320;2022-11-15T16:26:43;9.13;;;3.40;;
25191;SDS011;13143;50.924;5.320;2022-11-15T16:29:09;6.47;;;3.50;;
25191;SDS011;13143;50.924;5.320;2022-11-15T16:31:35;6.30;;;3.75;;
25191;SDS011;13143;50.924;5.320;2022-11-15T16:34:01;9.52;;;3.38;;
25191;SDS011;13143;50.924;5.320;2022-11-15T16:36:27;6.75;;;3.72;;
25191;SDS011;13143;50.924;5.320;2022-11-15T16:38:55;10.00;;;3.90;;
25191;SDS011;13143;50.924;5.320;2022-11-15T16:41:21;11.30;;;4.30;;
25191;SDS011;13143;50.924;5.320;2022-11-15T16:43:47;7.15;;;4.30;;
25191;SDS011;13143;50.924;5.320;2022-11-15T16:46:18;12.27;;;4.70;;
25191;SDS011;13143;50.924;5.320;2022-11-15T16:48:45;11.25;;;4.32;;
25191;SDS011;13143;50.924;5.320;2022-11-15T16:51:12;9.43;;;4.38;;
25191;SDS011;13143;50.924;5.320;2022-11-15T16:53:38;8.15;;;4.60;;
25191;SDS011;13143;50.924;5.320;2022-11-15T16:56:12;10.15;;;4.65;;
25191;SDS011;13143;50.924;5.320;2022-11-15T16:58:42;6.80;;;4.82;;
25191;SDS011;13143;50.924;5.320;2022-11-15T17:01:09;12.57;;;4.93;;
25191;SDS011;13143;50.924;5.320;2022-11-15T17:03:44;9.85;;;4.90;;
25191;SDS011;13143;50.924;5.320;2022-11-15T17:06:10;9.52;;;5.28;;
25191;SDS011;13143;50.924;5.320;2022-11-15T17:08:37;11.48;;;5.22;;
25191;SDS011;13143;50.924;5.320;2022-11-15T17:11:06;7.55;;;4.68;;
25191;SDS011;13143;50.924;5.320;2022-11-15T17:13:32;7.90;;;5.45;;
25191;SDS011;13143;50.924;5.320;2022-11-15T17:16:05;11.02;;;4.88;;
25191;SDS011;13143;50.924;5.320;2022-11-15T17:18:37;8.93;;;5.65;;
25191;SDS011;13143;50.924;5.320;2022-11-15T17:21:04;12.40;;;5.72;;
25191;SDS011;13143;50.924;5.320;2022-11-15T17:23:34;11.52;;;5.25;;
25191;SDS011;13143;50.924;5.320;2022-11-15T17:26:01;8.15;;;5.82;;
25191;SDS011;13143;50.924;5.320;2022-11-15T17:28:29;8.57;;;5.88;;
25191;SDS011;13143;50.924;5.320;2022-11-15T17:30:56;11.23;;;5.93;;
25191;SDS011;13143;50.924;5.320;2022-11-15T17:33:21;10.40;;;5.72;;
25191;SDS011;13143;50.924;5.320;2022-11-15T17:35:54;9.00;;;5.50;;
25191;SDS011;13143;50.924;5.320;2022-11-15T17:38:23;11.35;;;5.82;;
25191;SDS011;13143;50.924;5.320;2022-11-15T17:40:58;10.13;;;5.97;;